createdAt,value
2023-05-16T00:00:41.903Z,95349.63
2023-05-16T00:03:10.887Z,95349.59
2023-05-16T00:05:38.270Z,95347.63
2023-05-16T00:08:06.030Z,95342.16
2023-05-16T00:10:33.163Z,95342.69
2023-05-16T00:13:00.975Z,95345.41
2023-05-16T00:15:30.101Z,95341.09
2023-05-16T00:18:00.485Z,95333.22
2023-05-16T00:20:28.591Z,95336.44
2023-05-16T00:22:56.352Z,95326.66
2023-05-16T00:25:23.703Z,95331.25
2023-05-16T00:27:50.913Z,95325.59
2023-05-16T00:30:18.075Z,95324.00
2023-05-16T00:32:45.471Z,95324.28
2023-05-16T00:35:12.719Z,95327.56
2023-05-16T00:37:39.744Z,95325.41
2023-05-16T00:40:07.890Z,95328.38
2023-05-16T00:42:34.895Z,95336.97
2023-05-16T00:45:02.032Z,95330.19
2023-05-16T00:47:29.174Z,95326.34
2023-05-16T00:49:56.595Z,95325.75
2023-05-16T00:52:23.636Z,95327.91
2023-05-16T00:54:52.255Z,95320.53
2023-05-16T00:57:19.282Z,95326.16
2023-05-16T00:59:46.960Z,95329.09
2023-05-16T01:02:14.646Z,95318.03
2023-05-16T01:04:42.060Z,95328.13
2023-05-16T01:07:09.211Z,95320.34
2023-05-16T01:09:36.541Z,95316.25
2023-05-16T01:12:30.567Z,95313.31
2023-05-16T01:15:09.796Z,95312.28
2023-05-16T01:17:43.116Z,95303.13
2023-05-16T01:20:34.853Z,95307.97
2023-05-16T01:23:24.851Z,95305.84
2023-05-16T01:26:09.822Z,95301.75
2023-05-16T01:28:37.080Z,95303.66
2023-05-16T01:31:04.163Z,95306.66
2023-05-16T01:33:31.385Z,95305.41
2023-05-16T01:36:24.797Z,95303.50
2023-05-16T01:39:07.724Z,95306.53
2023-05-16T01:42:01.461Z,95312.03
2023-05-16T01:44:31.532Z,95308.53
2023-05-16T01:47:00.469Z,95302.53
2023-05-16T01:49:30.293Z,95303.59
2023-05-16T01:52:10.734Z,95301.16
2023-05-16T01:54:39.849Z,95307.94
2023-05-16T01:57:08.575Z,95304.16
2023-05-16T01:59:35.567Z,95298.44
2023-05-16T02:02:02.874Z,95295.47
2023-05-16T02:04:29.955Z,95302.25
2023-05-16T02:06:57.155Z,95292.81
2023-05-16T02:09:26.604Z,95293.09
2023-05-16T02:11:54.279Z,95290.13
2023-05-16T02:14:21.297Z,95295.00
2023-05-16T02:16:48.858Z,95293.66
2023-05-16T02:19:16.368Z,95298.56
2023-05-16T02:21:43.400Z,95287.72
2023-05-16T02:24:10.441Z,95297.75
2023-05-16T02:26:37.547Z,95293.66
2023-05-16T02:29:04.478Z,95295.00
2023-05-16T02:31:32.809Z,95295.28
2023-05-16T02:34:00.212Z,95297.19
2023-05-16T02:36:27.361Z,95297.41
2023-05-16T02:38:54.489Z,95296.38
2023-05-16T02:41:22.506Z,95293.66
2023-05-16T02:43:49.808Z,95292.31
2023-05-16T02:46:28.230Z,95276.31
2023-05-16T02:48:55.163Z,95292.31
2023-05-16T02:51:23.386Z,95287.16
2023-05-16T02:53:50.856Z,95284.44
2023-05-16T02:56:17.827Z,95284.97
2023-05-16T02:58:47.495Z,95281.19
2023-05-16T03:01:15.083Z,95281.19
2023-05-16T03:03:42.154Z,95271.13
2023-05-16T03:06:09.611Z,95266.75
2023-05-16T03:08:37.548Z,95269.69
2023-05-16T03:11:04.711Z,95263.19
2023-05-16T03:13:31.663Z,95263.44
2023-05-16T03:15:58.872Z,95265.56
2023-05-16T03:18:26.107Z,95273.16
2023-05-16T03:20:58.822Z,95266.94
2023-05-16T03:23:26.538Z,95262.63
2023-05-16T03:25:53.639Z,95266.69
2023-05-16T03:28:20.479Z,95261.56
2023-05-16T03:30:47.600Z,95261.03
2023-05-16T03:33:14.653Z,95268.56
2023-05-16T03:35:42.229Z,95257.38
2023-05-16T03:38:09.348Z,95258.09
2023-05-16T03:40:36.280Z,95258.91
2023-05-16T03:43:03.322Z,95258.91
2023-05-16T03:45:31.956Z,95245.13
2023-05-16T03:47:59.100Z,95247.28
2023-05-16T03:50:26.666Z,95253.25
2023-05-16T03:52:54.958Z,95257.59
2023-05-16T03:55:22.063Z,95260.28
2023-05-16T03:57:50.414Z,95265.19
2023-05-16T04:00:17.459Z,95265.25
2023-05-16T04:02:45.240Z,95260.34
2023-05-16T04:05:14.096Z,95273.44
2023-05-16T04:07:41.306Z,95273.94
2023-05-16T04:10:09.134Z,95268.94
2023-05-16T04:12:36.341Z,95263.97
2023-05-16T04:15:04.608Z,95271.91
2023-05-16T04:17:31.621Z,95264.81
2023-05-16T04:19:58.593Z,95274.03
2023-05-16T04:22:25.520Z,95270.97
2023-05-16T04:24:52.556Z,95265.50
2023-05-16T04:27:19.564Z,95271.31
2023-05-16T04:29:46.435Z,95262.09
2023-05-16T04:32:13.365Z,95266.19
2023-05-16T04:34:41.584Z,95268.25
2023-05-16T04:37:10.159Z,95279.50
2023-05-16T04:39:37.186Z,95280.19
2023-05-16T04:42:04.553Z,95279.25
2023-05-16T04:44:31.932Z,95274.13
2023-05-16T04:46:58.977Z,95284.84
2023-05-16T04:49:26.330Z,95277.16
2023-05-16T04:51:53.357Z,95269.72
2023-05-16T04:54:20.299Z,95279.28
2023-05-16T04:56:47.186Z,95273.78
2023-05-16T04:59:14.011Z,95272.63
2023-05-16T05:01:41.189Z,95275.25
2023-05-16T05:04:08.266Z,95281.75
2023-05-16T05:06:35.136Z,95291.78
2023-05-16T05:09:01.950Z,95287.91
2023-05-16T05:11:28.860Z,95286.84
2023-05-16T05:13:55.891Z,95283.78
2023-05-16T05:16:23.103Z,95280.34
2023-05-16T05:18:50.147Z,95268.97
2023-05-16T05:21:17.738Z,95284.41
2023-05-16T05:23:44.761Z,95291.81
2023-05-16T05:26:12.206Z,95280.69
2023-05-16T05:28:40.896Z,95284.72
2023-05-16T05:31:09.108Z,95292.00
2023-05-16T05:33:35.971Z,95293.47
2023-05-16T05:36:04.106Z,95280.81
2023-05-16T05:38:31.768Z,95286.81
2023-05-16T05:40:58.828Z,95284.94
2023-05-16T05:43:26.086Z,95289.16
2023-05-16T05:45:53.059Z,95287.44
2023-05-16T05:48:19.907Z,95283.50
2023-05-16T05:50:46.698Z,95278.59
2023-05-16T05:53:13.732Z,95278.69
2023-05-16T05:55:42.369Z,95291.28
2023-05-16T05:58:09.480Z,95288.63
2023-05-16T06:00:36.631Z,95290.84
2023-05-16T06:03:03.595Z,95287.59
2023-05-16T06:05:30.747Z,95286.00
2023-05-16T06:07:57.832Z,95288.72
2023-05-16T06:10:24.963Z,95290.03
2023-05-16T06:12:52.543Z,95281.59
2023-05-16T06:15:19.566Z,95289.72
2023-05-16T06:17:46.460Z,95284.47
2023-05-16T06:20:13.511Z,95286.50
2023-05-16T06:22:40.270Z,95289.69
2023-05-16T06:25:07.455Z,95292.25
2023-05-16T06:27:34.363Z,95291.91
2023-05-16T06:30:01.218Z,95296.78
2023-05-16T06:32:28.141Z,95295.84
2023-05-16T06:34:55.053Z,95289.94
2023-05-16T06:37:23.905Z,95294.47
2023-05-16T06:39:50.843Z,95294.16
2023-05-16T06:42:18.096Z,95292.69
2023-05-16T06:44:45.054Z,95300.94
2023-05-16T06:47:12.366Z,95290.97
2023-05-16T06:49:39.372Z,95294.16
2023-05-16T06:52:06.489Z,95292.09
2023-05-16T06:54:33.422Z,95296.56
2023-05-16T06:57:00.442Z,95303.50
2023-05-16T06:59:28.217Z,95300.91
2023-05-16T07:01:55.793Z,95302.41
2023-05-16T07:04:22.702Z,95300.88
2023-05-16T07:06:49.637Z,95301.50
2023-05-16T07:09:16.582Z,95291.53
2023-05-16T07:11:43.454Z,95303.03
2023-05-16T07:14:10.675Z,95296.53
2023-05-16T07:16:37.548Z,95303.66
2023-05-16T07:19:04.610Z,95307.25
2023-05-16T07:21:31.748Z,95303.47
2023-05-16T07:23:58.645Z,95302.97
2023-05-16T07:26:25.515Z,95311.09
2023-05-16T07:28:52.526Z,95314.31
2023-05-16T07:31:19.595Z,95305.09
2023-05-16T07:33:52.504Z,95304.59
2023-05-16T07:36:19.570Z,95304.03
2023-05-16T07:38:46.684Z,95314.69
2023-05-16T07:41:13.924Z,95308.00
2023-05-16T07:43:40.991Z,95309.16
2023-05-16T07:46:07.962Z,95312.28
2023-05-16T07:48:35.090Z,95324.56
2023-05-16T07:51:02.098Z,95319.13
2023-05-16T07:53:28.876Z,95318.59
2023-05-16T07:55:56.698Z,95321.63
2023-05-16T07:58:23.507Z,95323.94
2023-05-16T08:00:51.128Z,95322.31
2023-05-16T08:03:18.150Z,95325.41
2023-05-16T08:05:45.390Z,95325.00
2023-05-16T08:08:12.313Z,95317.56
2023-05-16T08:10:39.153Z,95324.88
2023-05-16T08:13:06.138Z,95321.91
2023-05-16T08:15:32.996Z,95320.50
2023-05-16T08:17:59.997Z,95322.25
2023-05-16T08:20:27.093Z,95322.03
2023-05-16T08:22:54.861Z,95317.41
2023-05-16T08:25:21.852Z,95320.72
2023-05-16T08:27:49.597Z,95320.78
2023-05-16T08:30:16.592Z,95329.19
2023-05-16T08:32:44.011Z,95321.59
2023-05-16T08:35:11.529Z,95320.19
2023-05-16T08:37:38.527Z,95326.13
2023-05-16T08:40:08.506Z,95325.53
2023-05-16T08:42:35.809Z,95325.00
2023-05-16T08:45:03.489Z,95332.59
2023-05-16T08:47:31.779Z,95329.00
2023-05-16T08:49:59.218Z,95329.00
2023-05-16T08:52:29.311Z,95333.34
2023-05-16T08:55:09.170Z,95334.16
2023-05-16T08:57:38.404Z,95347.22
2023-05-16T09:00:12.297Z,95339.09
2023-05-16T09:02:42.932Z,95337.25
2023-05-16T09:05:12.307Z,95347.38
2023-05-16T09:07:39.409Z,95346.81
2023-05-16T09:10:07.626Z,95349.56
2023-05-16T09:12:35.160Z,95351.75
2023-05-16T09:15:03.147Z,95354.50
2023-05-16T09:17:45.080Z,95349.31
2023-05-16T09:20:17.624Z,95343.59
2023-05-16T09:22:54.558Z,95344.41
2023-05-16T09:25:30.240Z,95337.66
2023-05-16T09:27:59.732Z,95341.44
2023-05-16T09:30:31.889Z,95346.31
2023-05-16T09:32:59.628Z,95352.88
2023-05-16T09:35:43.320Z,95353.94
2023-05-16T09:38:17.104Z,95362.84
2023-05-16T09:40:45.808Z,95359.19
2023-05-16T09:43:14.640Z,95360.78
2023-05-16T09:45:41.593Z,95367.97
2023-05-16T09:48:09.650Z,95363.78
2023-05-16T09:50:37.873Z,95369.53
2023-05-16T09:53:05.619Z,95366.88
2023-05-16T09:55:33.062Z,95365.97
2023-05-16T09:57:59.970Z,95368.00
2023-05-16T10:00:31.877Z,95358.25
2023-05-16T10:03:04.017Z,95362.38
2023-05-16T10:05:33.072Z,95367.22
2023-05-16T10:08:00.239Z,95376.72
2023-05-16T10:10:27.177Z,95372.88
2023-05-16T10:12:53.991Z,95376.75
2023-05-16T10:15:21.056Z,95365.13
2023-05-16T10:17:51.650Z,95384.72
2023-05-16T10:20:18.794Z,95385.69
2023-05-16T10:22:45.734Z,95386.44
2023-05-16T10:25:27.066Z,95382.88
2023-05-16T10:27:54.624Z,95400.06
2023-05-16T10:30:21.796Z,95383.91
2023-05-16T10:32:49.147Z,95379.03
2023-05-16T10:35:16.261Z,95390.38
2023-05-16T10:37:43.057Z,95387.78
2023-05-16T10:40:10.433Z,95389.41
2023-05-16T10:42:37.500Z,95393.59
2023-05-16T10:45:31.360Z,95396.38
2023-05-16T10:48:00.130Z,95386.56
2023-05-16T10:50:36.236Z,95381.41
2023-05-16T10:53:23.239Z,95375.16
2023-05-16T10:55:59.525Z,95383.72
2023-05-16T10:58:35.827Z,95374.91
2023-05-16T11:01:16.437Z,95384.13
2023-05-16T11:04:04.890Z,95388.38
2023-05-16T11:06:35.427Z,95380.75
2023-05-16T11:09:10.572Z,95378.06
2023-05-16T11:11:43.156Z,95372.47
2023-05-16T11:14:16.558Z,95377.97
2023-05-16T11:16:45.966Z,95379.69
2023-05-16T11:19:12.976Z,95386.00
2023-05-16T11:22:24.052Z,95388.09
2023-05-16T11:25:01.112Z,95396.97
2023-05-16T11:27:43.490Z,95378.84
2023-05-16T11:30:10.289Z,95389.59
2023-05-16T11:32:38.615Z,95389.63
2023-05-16T11:35:11.588Z,95388.16
2023-05-16T11:37:40.763Z,95379.03
2023-05-16T11:40:10.042Z,95378.63
2023-05-16T11:42:39.932Z,95386.94
2023-05-16T11:45:07.449Z,95385.19
2023-05-16T11:47:36.618Z,95377.44
2023-05-16T11:50:10.297Z,95378.69
2023-05-16T11:52:37.812Z,95380.41
2023-05-16T11:55:06.530Z,95377.13
2023-05-16T11:57:36.509Z,95385.19
2023-05-16T12:00:15.883Z,95386.69
2023-05-16T12:02:43.959Z,95390.47
2023-05-16T12:05:11.494Z,95393.56
2023-05-16T12:07:38.856Z,95390.44
2023-05-16T12:10:13.216Z,95391.22
2023-05-16T12:12:42.261Z,95394.28
2023-05-16T12:15:09.526Z,95397.34
2023-05-16T12:17:37.838Z,95398.81
2023-05-16T12:20:11.960Z,95409.25
2023-05-16T12:22:43.612Z,95404.91
2023-05-16T12:25:26.512Z,95400.00
2023-05-16T12:27:59.489Z,95418.00
2023-05-16T12:30:28.038Z,95411.81
2023-05-16T12:32:58.885Z,95427.84
2023-05-16T12:35:27.352Z,95420.50
2023-05-16T12:37:54.538Z,95421.03
2023-05-16T12:40:23.736Z,95415.88
2023-05-16T12:42:52.334Z,95430.81
2023-05-16T12:45:19.452Z,95423.50
2023-05-16T12:47:47.360Z,95420.75
2023-05-16T12:50:15.184Z,95427.25
2023-05-16T12:52:52.180Z,95423.13
2023-05-16T12:55:20.653Z,95434.03
2023-05-16T12:57:48.273Z,95432.38
2023-05-16T13:00:16.853Z,95442.72
2023-05-16T13:02:43.825Z,95433.44
2023-05-16T13:05:11.229Z,95440.81
2023-05-16T13:07:41.054Z,95438.09
2023-05-16T13:10:12.798Z,95436.47
2023-05-16T13:12:40.960Z,95439.19
2023-05-16T13:15:08.866Z,95430.47
2023-05-16T13:17:35.930Z,95433.13
2023-05-16T13:20:05.623Z,95438.28
2023-05-16T13:22:33.219Z,95441.00
2023-05-16T13:25:00.950Z,95435.56
2023-05-16T13:27:28.072Z,95435.59
2023-05-16T13:29:55.196Z,95444.06
2023-05-16T13:32:22.069Z,95450.06
2023-05-16T13:34:49.437Z,95442.72
2023-05-16T13:37:17.058Z,95447.38
2023-05-16T13:39:43.886Z,95451.75
2023-05-16T13:42:10.845Z,95447.69
2023-05-16T13:44:38.015Z,95456.41
2023-05-16T13:47:05.072Z,95457.75
2023-05-16T13:49:31.894Z,95459.09
2023-05-16T13:51:59.354Z,95458.56
2023-05-16T13:54:26.802Z,95459.63
2023-05-16T13:56:53.793Z,95458.81
2023-05-16T13:59:31.894Z,95468.81
2023-05-16T14:02:07.809Z,95470.69
2023-05-16T14:04:34.735Z,95473.69
2023-05-16T14:07:01.706Z,95470.94
2023-05-16T14:09:28.710Z,95474.47
2023-05-16T14:11:55.744Z,95473.63
2023-05-16T14:14:22.584Z,95475.03
2023-05-16T14:16:49.577Z,95466.09
2023-05-16T14:19:19.438Z,95463.09
2023-05-16T14:21:47.099Z,95469.59
2023-05-16T14:24:14.150Z,95467.41
2023-05-16T14:26:41.493Z,95473.41
2023-05-16T14:29:08.517Z,95464.72
2023-05-16T14:31:36.707Z,95466.91
2023-05-16T14:34:04.440Z,95463.09
2023-05-16T14:36:33.345Z,95470.69
2023-05-16T14:39:00.918Z,95476.66
2023-05-16T14:41:27.725Z,95476.63
2023-05-16T14:43:55.621Z,95474.13
2023-05-16T14:46:22.776Z,95479.28
2023-05-16T14:48:49.760Z,95474.38
2023-05-16T14:51:16.877Z,95478.69
2023-05-16T14:53:46.055Z,95484.06
2023-05-16T14:56:13.716Z,95481.59
2023-05-16T14:58:40.905Z,95485.06
2023-05-16T15:01:07.867Z,95490.44
2023-05-16T15:03:46.976Z,95488.22
2023-05-16T15:06:21.446Z,95492.00
2023-05-16T15:08:48.346Z,95487.09
2023-05-16T15:11:15.222Z,95491.69
2023-05-16T15:13:42.281Z,95495.50
2023-05-16T15:16:09.291Z,95494.66
2023-05-16T15:18:36.508Z,95498.50
2023-05-16T15:21:03.497Z,95492.56
2023-05-16T15:23:30.421Z,95497.41
2023-05-16T15:25:57.459Z,95489.22
2023-05-16T15:28:24.259Z,95506.28
2023-05-16T15:30:51.954Z,95498.47
2023-05-16T15:33:19.008Z,95497.38
2023-05-16T15:35:46.344Z,95496.78
2023-05-16T15:38:13.480Z,95507.09
2023-05-16T15:40:40.524Z,95497.06
2023-05-16T15:43:07.507Z,95494.81
2023-05-16T15:45:35.983Z,95507.31
2023-05-16T15:48:04.541Z,95506.41
2023-05-16T15:50:31.495Z,95511.06
2023-05-16T15:52:58.698Z,95510.59
2023-05-16T15:55:25.746Z,95514.31
2023-05-16T15:57:57.105Z,95520.06
2023-05-16T16:00:25.216Z,95516.06
2023-05-16T16:02:52.739Z,95523.97
2023-05-16T16:05:19.753Z,95525.41
2023-05-16T16:07:46.676Z,95518.66
2023-05-16T16:10:13.799Z,95518.91
2023-05-16T16:12:40.765Z,95520.28
2023-05-16T16:15:09.902Z,95517.88
2023-05-16T16:17:36.978Z,95517.53
2023-05-16T16:20:04.556Z,95521.50
2023-05-16T16:22:31.657Z,95522.09
2023-05-16T16:24:59.235Z,95524.56
2023-05-16T16:27:26.389Z,95527.22
2023-05-16T16:29:53.266Z,95525.91
2023-05-16T16:32:20.144Z,95529.06
2023-05-16T16:34:47.292Z,95530.66
2023-05-16T16:37:14.366Z,95530.94
2023-05-16T16:39:41.257Z,95531.97
2023-05-16T16:42:08.356Z,95533.34
2023-05-16T16:44:36.539Z,95542.50
2023-05-16T16:47:03.464Z,95544.34
2023-05-16T16:49:31.635Z,95544.53
2023-05-16T16:51:59.044Z,95544.00
2023-05-16T16:54:25.962Z,95548.94
2023-05-16T16:56:52.917Z,95554.56
2023-05-16T16:59:20.038Z,95547.25
2023-05-16T17:01:47.152Z,95564.59
2023-05-16T17:04:14.264Z,95565.53
2023-05-16T17:06:41.410Z,95564.38
2023-05-16T17:09:13.922Z,95563.75
2023-05-16T17:11:42.033Z,95564.78
2023-05-16T17:14:11.223Z,95576.44
2023-05-16T17:16:41.073Z,95577.47
2023-05-16T17:19:08.912Z,95580.19
2023-05-16T17:21:37.059Z,95576.44
2023-05-16T17:24:05.114Z,95586.25
2023-05-16T17:26:32.267Z,95584.47
2023-05-16T17:29:00.666Z,95591.78
2023-05-16T17:31:28.200Z,95580.63
2023-05-16T17:33:55.250Z,95592.00
2023-05-16T17:36:22.147Z,95589.81
2023-05-16T17:38:49.062Z,95585.69
2023-05-16T17:41:16.758Z,95592.06
2023-05-16T17:43:45.358Z,95592.88
2023-05-16T17:46:13.149Z,95595.06
2023-05-16T17:48:40.076Z,95593.38
2023-05-16T17:51:06.976Z,95593.06
2023-05-16T17:53:33.903Z,95587.94
2023-05-16T17:56:00.804Z,95603.06
2023-05-16T17:58:28.390Z,95601.59
2023-05-16T18:00:55.435Z,95607.59
2023-05-16T18:03:23.155Z,95601.88
2023-05-16T18:05:51.271Z,95606.66
2023-05-16T18:08:18.462Z,95608.88
2023-05-16T18:10:52.247Z,95611.25
2023-05-16T18:13:20.337Z,95618.56
2023-05-16T18:15:47.266Z,95613.16
2023-05-16T18:18:14.288Z,95613.09
2023-05-16T18:20:41.229Z,95612.78
2023-05-16T18:23:08.861Z,95620.13
2023-05-16T18:25:35.836Z,95620.22
2023-05-16T18:28:02.961Z,95624.47
2023-05-16T18:30:29.857Z,95620.72
2023-05-16T18:32:56.924Z,95630.50
2023-05-16T18:35:24.382Z,95637.78
2023-05-16T18:37:51.364Z,95641.63
2023-05-16T18:40:18.461Z,95642.00
2023-05-16T18:42:45.769Z,95637.41
2023-05-16T18:45:12.714Z,95644.47
2023-05-16T18:47:39.731Z,95649.78
2023-05-16T18:50:07.661Z,95650.91
2023-05-16T18:52:35.745Z,95655.53
2023-05-16T18:55:02.667Z,95651.44
2023-05-16T18:57:29.587Z,95654.97
2023-05-16T18:59:56.932Z,95664.78
2023-05-16T19:02:34.033Z,95662.22
2023-05-16T19:05:08.996Z,95670.19
2023-05-16T19:07:36.443Z,95677.75
2023-05-16T19:10:04.588Z,95670.94
2023-05-16T19:12:32.250Z,95669.03
2023-05-16T19:14:59.191Z,95666.50
2023-05-16T19:17:26.440Z,95682.22
2023-05-16T19:19:53.430Z,95678.06
2023-05-16T19:22:20.679Z,95677.97
2023-05-16T19:24:48.227Z,95679.19
2023-05-16T19:27:15.250Z,95686.56
2023-05-16T19:29:42.203Z,95704.44
2023-05-16T19:32:09.239Z,95695.84
2023-05-16T19:34:36.387Z,95698.88
2023-05-16T19:37:04.381Z,95706.72
2023-05-16T19:39:32.577Z,95708.75
2023-05-16T19:42:07.055Z,95722.16
2023-05-16T19:44:35.416Z,95722.56
2023-05-16T19:47:02.209Z,95727.94
2023-05-16T19:49:31.987Z,95728.09
2023-05-16T19:51:58.957Z,95743.13
2023-05-16T19:54:26.387Z,95719.66
2023-05-16T19:56:53.356Z,95735.41
2023-05-16T19:59:20.971Z,95743.84
2023-05-16T20:01:48.131Z,95750.66
2023-05-16T20:04:15.193Z,95755.78
2023-05-16T20:06:42.089Z,95756.28
2023-05-16T20:09:10.965Z,95760.03
2023-05-16T20:11:38.015Z,95764.28
2023-05-16T20:14:04.899Z,95759.69
2023-05-16T20:16:32.529Z,95769.78
2023-05-16T20:18:59.694Z,95772.59
2023-05-16T20:21:26.829Z,95771.19
2023-05-16T20:23:53.749Z,95770.72
2023-05-16T20:26:21.632Z,95771.78
2023-05-16T20:28:48.554Z,95780.44
2023-05-16T20:31:15.509Z,95792.31
2023-05-16T20:33:42.453Z,95784.00
2023-05-16T20:36:09.356Z,95785.63
2023-05-16T20:38:36.285Z,95783.06
2023-05-16T20:41:04.731Z,95799.53
2023-05-16T20:43:31.768Z,95792.97
2023-05-16T20:45:58.777Z,95792.25
2023-05-16T20:48:26.132Z,95799.31
2023-05-16T20:50:55.083Z,95794.94
2023-05-16T20:53:22.584Z,95795.78
2023-05-16T20:55:49.470Z,95789.91
2023-05-16T20:58:16.454Z,95795.66
2023-05-16T21:00:43.449Z,95786.84
2023-05-16T21:03:12.615Z,95792.00
2023-05-16T21:05:39.881Z,95794.22
2023-05-16T21:08:07.467Z,95795.63
2023-05-16T21:10:34.642Z,95791.03
2023-05-16T21:13:01.544Z,95796.44
2023-05-16T21:15:28.936Z,95803.25
2023-05-16T21:17:56.276Z,95793.75
2023-05-16T21:20:23.222Z,95804.31
2023-05-16T21:22:50.113Z,95799.13
2023-05-16T21:25:17.246Z,95809.34
2023-05-16T21:27:44.136Z,95809.81
2023-05-16T21:30:12.166Z,95813.59
2023-05-16T21:32:39.780Z,95818.16
2023-05-16T21:35:07.109Z,95810.06
2023-05-16T21:37:34.204Z,95817.09
2023-05-16T21:40:01.204Z,95829.56
2023-05-16T21:42:28.097Z,95826.63
2023-05-16T21:44:55.033Z,95836.63
2023-05-16T21:47:21.970Z,95843.09
2023-05-16T21:49:48.908Z,95845.66
2023-05-16T21:52:15.793Z,95842.97
2023-05-16T21:54:43.257Z,95865.75
2023-05-16T21:57:10.173Z,95848.38
2023-05-16T21:59:37.337Z,95854.47
2023-05-16T22:02:04.482Z,95859.19
2023-05-16T22:04:31.451Z,95857.53
2023-05-16T22:06:58.689Z,95869.41
2023-05-16T22:09:25.738Z,95870.44
2023-05-16T22:11:52.685Z,95859.28
2023-05-16T22:14:19.668Z,95867.06
2023-05-16T22:16:46.877Z,95873.84
2023-05-16T22:19:13.758Z,95876.91
2023-05-16T22:21:43.965Z,95880.66
2023-05-16T22:24:10.875Z,95889.91
2023-05-16T22:26:38.239Z,95883.34
2023-05-16T22:29:05.298Z,95884.41
2023-05-16T22:31:32.118Z,95890.84
2023-05-16T22:33:59.311Z,95880.06
2023-05-16T22:36:26.263Z,95886.38
2023-05-16T22:38:53.031Z,95893.16
2023-05-16T22:41:19.847Z,95878.13
2023-05-16T22:43:46.688Z,95886.59
2023-05-16T22:46:15.663Z,95886.94
2023-05-16T22:48:42.965Z,95879.06
2023-05-16T22:51:09.881Z,95884.53
2023-05-16T22:53:36.842Z,95885.75
2023-05-16T22:56:04.115Z,95890.19
2023-05-16T22:58:31.061Z,95881.84
2023-05-16T23:00:58.393Z,95881.28
2023-05-16T23:03:25.499Z,95890.31
2023-05-16T23:05:52.357Z,95874.50
2023-05-16T23:08:19.403Z,95888.94
2023-05-16T23:10:46.292Z,95885.94
2023-05-16T23:13:13.208Z,95893.31
2023-05-16T23:15:40.074Z,95888.47
2023-05-16T23:18:07.209Z,95880.25
2023-05-16T23:20:34.194Z,95889.66
2023-05-16T23:23:01.208Z,95887.16
2023-05-16T23:25:28.318Z,95892.56
2023-05-16T23:27:58.084Z,95890.75
2023-05-16T23:30:25.090Z,95892.88
2023-05-16T23:32:52.255Z,95885.16
2023-05-16T23:35:19.593Z,95884.94
2023-05-16T23:37:46.526Z,95903.22
2023-05-16T23:40:13.536Z,95893.91
2023-05-16T23:42:43.254Z,95891.66
2023-05-16T23:45:10.610Z,95890.03
2023-05-16T23:47:37.908Z,95892.03
2023-05-16T23:50:06.161Z,95892.63
2023-05-16T23:52:33.129Z,95885.19
2023-05-16T23:55:00.166Z,95883.19
2023-05-16T23:57:27.121Z,95872.41
2023-05-16T23:59:54.307Z,95883.19
